METAR AND TAF INFORMATION
METAR FOR EHKD
ADDS - METARS form results

(0556 UTC 21 April 2021)
Data provider http://aviationweather.gov/metar/data/
 
METAR text: EHKD 210548Z AUTO 01010KT 340V050 4000 BR BKN003 BKN004 FEW015CB 08/07 Q1018 YLO TEMPO 4000 BR BKN005
Conditions at: EHKD (DE KOOY (NAVY) , NL) observed 0548 UTC 21 April 2021
Temperature: 8.0°C (46°F)
Dewpoint: 7.0°C (45°F) [RH = 93%]
Pressure (altimeter): 30.06 inches Hg (1018.0 mb)
Winds: from the N (10 degrees) at 12 MPH (10 knots; 5.1 m/s)
Visibility: 2.49 miles (4.01 km)
Ceiling: 300 feet AGL
Clouds: broken clouds at 300 feet AGL
broken clouds at 400 feet AGL
few clouds at 1500 feet AGL
Weather: BR  (mist)

METAR text: EHKD 210537Z AUTO 36011KT 330V050 4500 BR FEW004 BKN005 FEW015CB 08/07 Q1018 YLO TEMPO 4000 BR BKN005
Conditions at: EHKD (DE KOOY (NAVY) , NL) observed 0537 UTC 21 April 2021
Temperature: 8.0°C (46°F)
Dewpoint: 7.0°C (45°F) [RH = 93%]
Pressure (altimeter): 30.06 inches Hg (1018.0 mb)
Winds: from the N (360 degrees) at 13 MPH (11 knots; 5.7 m/s)
Visibility: 2.80 miles (4.51 km)
Ceiling: 500 feet AGL
Clouds: few clouds at 400 feet AGL
broken clouds at 500 feet AGL
few clouds at 1500 feet AGL
Weather: BR  (mist)

METAR text: EHKD 210525Z AUTO 36011KT 320V030 5000 BR BKN006 BKN008 FEW015CB 08/07 Q1018 YLO TEMPO 4000 BR BKN005
Conditions at: EHKD (DE KOOY (NAVY) , NL) observed 0525 UTC 21 April 2021
Temperature: 8.0°C (46°F)
Dewpoint: 7.0°C (45°F) [RH = 93%]
Pressure (altimeter): 30.06 inches Hg (1018.0 mb)
Winds: from the N (360 degrees) at 13 MPH (11 knots; 5.7 m/s)
Visibility: 3 miles ( 5 km)
Ceiling: 600 feet AGL
Clouds: broken clouds at 600 feet AGL
broken clouds at 800 feet AGL
few clouds at 1500 feet AGL
Weather: BR  (mist)

METAR text: EHKD 210511Z AUTO 36010KT 320V050 5000 BR BKN006 BKN008 FEW015CB 08/07 Q1017 YLO TEMPO 4000 BR BKN005
Conditions at: EHKD (DE KOOY (NAVY) , NL) observed 0511 UTC 21 April 2021
Temperature: 8.0°C (46°F)
Dewpoint: 7.0°C (45°F) [RH = 93%]
Pressure (altimeter): 30.03 inches Hg (1017.0 mb)
Winds: from the N (360 degrees) at 12 MPH (10 knots; 5.1 m/s)
Visibility: 3 miles ( 5 km)
Ceiling: 600 feet AGL
Clouds: broken clouds at 600 feet AGL
broken clouds at 800 feet AGL
few clouds at 1500 feet AGL
Weather: BR  (mist)

METAR text: EHKD 210507Z AUTO 36010KT 320V040 5000 BR FEW005 BKN007 FEW015CB 08/07 Q1017 GRN TEMPO 4000 BR BKN005
Conditions at: EHKD (DE KOOY (NAVY) , NL) observed 0507 UTC 21 April 2021
Temperature: 8.0°C (46°F)
Dewpoint: 7.0°C (45°F) [RH = 93%]
Pressure (altimeter): 30.03 inches Hg (1017.0 mb)
Winds: from the N (360 degrees) at 12 MPH (10 knots; 5.1 m/s)
Visibility: 3 miles ( 5 km)
Ceiling: 700 feet AGL
Clouds: few clouds at 500 feet AGL
broken clouds at 700 feet AGL
few clouds at 1500 feet AGL
Weather: BR  (mist)

Forecast for: COR
Text: TAF COR EHKD 210417Z 2105/2117 34005KT 7000 NSC
Forecast period: 0500 to 1700 UTC 21 April 2021
Forecast type: FROM: standard forecast or significant change
Winds: from the NNW (340 degrees) at 6 MPH (5 knots; 2.6 m/s)
Visibility: 4 miles (7 km)
Ceiling: unknown
Clouds: missing
Weather: no significant weather forecast for this period
Text: BECMG 2105/2107 BKN010
Forecast period: 0500 to 0800 UTC 21 April 2021
Forecast type: BECOMING: Conditions expected to become as follows by 0700 UTC 21 April 2021
Winds: from the NNW (340 degrees) at 6 MPH (5 knots; 2.6 m/s)
Visibility: 4 miles (7 km)
Ceiling: 1000 feet AGL
Clouds: broken clouds at 1000 feet AGL
Weather: no significant weather forecast for this period
Text: PROB40
Forecast period: 0500 to 0800 UTC 21 April 2021
Forecast type: TEMPORARY: The following changes expected for less than half the time period
Visibility: 2.49 miles (4.01 km)
Ceiling: 1000 feet AGL
Clouds: scattered clouds at 500 feet AGL
broken clouds at 1000 feet AGL
Weather: BR  (mist)
Text: TEMPO 2105/2108 4000 BR SCT005 BKN010
Forecast period: 0800 to 1700 UTC 21 April 2021
Forecast type: BECOMING: Conditions expected to become as follows by 1000 UTC 21 April 2021
Winds: from the N (10 degrees) at 14 MPH (12 knots; 6.2 m/s)
Visibility: 6 or more miles (10+ km)
Ceiling: at least 12,000 feet AGL
Clouds: scattered clouds at 3000 feet AGL
Weather: NSW  (no significant weather)

 AIRPORT MAP

 RUNWAY INFORMATION
Runway 04 Runway length 4183 ft Runway width 98 ft
Runway elevation 3 ft Runway displaced threshold 804 ft Runway heading 34
Runway 22 Runway length 4183 ft Runway width 98 ft
Runway elevation 2 ft Runway displaced threshold 804 ft Runway heading 214

 AIRPORT FREQUENCIES
Type APP Name APP Frequency 119.1 MHZ
Type FSS Name FINAL Frequency 123.3 MHZ
Type GND Name GND Frequency 121.725 MHZ
Type TWR Name TWR Frequency 120.125 MHZ

 AIRPORT NEAR NAVIGATION AIDS
Type VOR-DME Name Den Helder Frequency 115550 KHZ